Time;durP1;ratioP1;P1;durP2;ratioP2;P2;SDS_P1;SDS_P2;PMS_P1;PMS_P2;Temp;Humidity;BMP_temperature;BMP_pressure;BME280_temperature;BME280_humidity;BME280_pressure;Samples;Min_cycle;Max_cycle;Signal;HPM_P1;HPM_P2
2021/07/27 00:00:34;;;;;;;28.97;27.37;;;;;;;;;;4953050;28;21130;-68
2021/07/27 00:03:02;;;;;;;28.73;27.07;;;;;;;;;;4951239;28;22284;-68
2021/07/27 00:05:30;;;;;;;28.33;26.73;;;;;;;;;;4947182;29;20963;-68
2021/07/27 00:07:57;;;;;;;27.83;26.23;;;;;;;;;;4952992;28;20448;-68
2021/07/27 00:10:25;;;;;;;28.73;26.97;;;;;;;;;;4953267;28;20454;-67
2021/07/27 00:12:52;;;;;;;29.17;27.47;;;;;;;;;;4952446;28;20488;-68
2021/07/27 00:15:19;;;;;;;29.27;27.40;;;;;;;;;;4952926;28;20497;-68
2021/07/27 00:17:46;;;;;;;28.87;27.17;;;;;;;;;;4953041;28;20451;-68
2021/07/27 00:20:14;;;;;;;29.27;27.57;;;;;;;;;;4952808;28;20456;-68
2021/07/27 00:22:42;;;;;;;28.70;26.90;;;;;;;;;;4952924;28;20455;-67
2021/07/27 00:25:10;;;;;;;28.93;27.03;;;;;;;;;;4953356;28;20448;-64
2021/07/27 00:27:38;;;;;;;28.40;26.70;;;;;;;;;;4952279;28;20479;-68
2021/07/27 00:30:06;;;;;;;27.70;26.07;;;;;;;;;;4952770;28;20823;-66
2021/07/27 00:32:33;;;;;;;29.43;27.53;;;;;;;;;;4951572;29;20484;-68
2021/07/27 00:35:03;;;;;;;29.10;27.40;;;;;;;;;;4952718;28;20456;-68
2021/07/27 00:37:32;;;;;;;27.67;25.97;;;;;;;;;;4952760;28;20534;-68
2021/07/27 00:40:00;;;;;;;28.30;26.60;;;;;;;;;;4952835;28;21018;-68
2021/07/27 00:42:28;;;;;;;29.17;27.47;;;;;;;;;;4952426;28;20467;-68
2021/07/27 00:44:55;;;;;;;29.50;27.60;;;;;;;;;;4952696;28;20456;-68
2021/07/27 00:47:22;;;;;;;28.43;26.83;;;;;;;;;;4916149;28;1076027;-68
2021/07/27 00:49:49;;;;;;;28.73;27.10;;;;;;;;;;4953674;28;20233;-68
2021/07/27 00:52:16;;;;;;;29.77;27.87;;;;;;;;;;4952645;28;20492;-68
2021/07/27 00:54:45;;;;;;;29.77;28.07;;;;;;;;;;4953531;28;20453;-67
2021/07/27 00:57:13;;;;;;;30.90;28.73;;;;;;;;;;4953190;28;20505;-68
2021/07/27 00:59:41;;;;;;;31.47;29.67;;;;;;;;;;4953365;28;20467;-68
2021/07/27 01:02:08;;;;;;;32.23;30.33;;;;;;;;;;4953320;28;20448;-67
2021/07/27 01:04:35;;;;;;;32.40;30.53;;;;;;;;;;4953017;28;20971;-68
2021/07/27 01:07:02;;;;;;;33.53;31.23;;;;;;;;;;4953445;28;20476;-66
2021/07/27 01:09:29;;;;;;;35.17;33.07;;;;;;;;;;4953093;28;20463;-68
2021/07/27 01:12:00;;;;;;;34.67;32.63;;;;;;;;;;4952569;28;20498;-68
2021/07/27 01:14:28;;;;;;;35.07;33.07;;;;;;;;;;4953131;28;20936;-68
2021/07/27 01:16:55;;;;;;;35.43;33.43;;;;;;;;;;4953243;28;20478;-67
2021/07/27 01:19:33;;;;;;;36.13;34.03;;;;;;;;;;4953219;29;20464;-67
2021/07/27 01:39:07;;;;;;;38.27;35.97;;;;;;;;;;4956107;29;20590;-69
2021/07/27 01:44:18;;;;;;;36.83;34.63;;;;;;;;;;4956284;29;20471;-67
2021/07/27 01:46:51;;;;;;;37.37;35.17;;;;;;;;;;4956090;28;20491;-68
2021/07/27 01:49:18;;;;;;;37.97;35.63;;;;;;;;;;4956497;28;20507;-69
2021/07/27 01:51:46;;;;;;;36.50;34.43;;;;;;;;;;4955819;28;20483;-68
2021/07/27 01:54:16;;;;;;;36.97;34.63;;;;;;;;;;4956077;28;20455;-68
2021/07/27 01:56:44;;;;;;;37.50;35.30;;;;;;;;;;4956289;28;20511;-68
2021/07/27 01:59:11;;;;;;;35.63;33.43;;;;;;;;;;4955927;28;20479;-67
2021/07/27 02:01:39;;;;;;;37.27;34.97;;;;;;;;;;4955988;28;20444;-68
2021/07/27 02:04:06;;;;;;;34.97;32.97;;;;;;;;;;4955724;28;20947;-68
2021/07/27 02:06:33;;;;;;;35.00;33.00;;;;;;;;;;4956232;28;20486;-67
2021/07/27 02:09:05;;;;;;;35.30;33.17;;;;;;;;;;4956376;28;20562;-68
2021/07/27 02:11:39;;;;;;;35.50;33.30;;;;;;;;;;4955827;28;20841;-68
2021/07/27 02:14:07;;;;;;;36.43;34.23;;;;;;;;;;4956030;28;20448;-68
2021/07/27 02:16:36;;;;;;;36.57;34.37;;;;;;;;;;4955966;28;20567;-68
2021/07/27 02:19:03;;;;;;;35.70;33.40;;;;;;;;;;4955471;28;20495;-68
2021/07/27 02:21:30;;;;;;;34.90;32.60;;;;;;;;;;4956062;28;20448;-68
2021/07/27 02:23:57;;;;;;;35.83;33.73;;;;;;;;;;4955128;28;20507;-67
2021/07/27 02:26:24;;;;;;;34.90;32.80;;;;;;;;;;4955310;28;20494;-68
2021/07/27 02:28:53;;;;;;;35.10;32.90;;;;;;;;;;4955563;28;20457;-68
2021/07/27 02:31:25;;;;;;;35.20;33.20;;;;;;;;;;4955636;28;20456;-69
2021/07/27 02:33:53;;;;;;;34.00;32.00;;;;;;;;;;4954962;28;20520;-68
2021/07/27 02:36:20;;;;;;;34.97;32.87;;;;;;;;;;4954550;28;20468;-68
2021/07/27 02:38:48;;;;;;;34.23;32.23;;;;;;;;;;4955034;28;20983;-69
2021/07/27 02:41:15;;;;;;;34.20;31.80;;;;;;;;;;4955752;28;20456;-68
2021/07/27 02:43:42;;;;;;;33.43;31.43;;;;;;;;;;4954258;28;20453;-67
2021/07/27 02:46:11;;;;;;;34.60;32.20;;;;;;;;;;4955262;28;21045;-68
2021/07/27 02:48:38;;;;;;;34.27;31.97;;;;;;;;;;4955042;28;20963;-68
2021/07/27 02:51:07;;;;;;;34.57;32.27;;;;;;;;;;4955227;28;20448;-68
2021/07/27 02:53:34;;;;;;;34.27;32.17;;;;;;;;;;4955032;28;20492;-68
2021/07/27 02:56:01;;;;;;;34.60;32.60;;;;;;;;;;4955208;28;20484;-68
2021/07/27 02:58:32;;;;;;;34.70;32.60;;;;;;;;;;4954888;28;20456;-67
2021/07/27 03:01:00;;;;;;;34.20;32.10;;;;;;;;;;4954860;28;20452;-68
2021/07/27 03:03:28;;;;;;;34.10;32.00;;;;;;;;;;4954680;28;20444;-67
2021/07/27 03:05:57;;;;;;;32.53;30.70;;;;;;;;;;4954838;28;20483;-68
2021/07/27 03:08:34;;;;;;;33.10;30.90;;;;;;;;;;4954753;28;20527;-67
2021/07/27 03:11:01;;;;;;;34.27;32.17;;;;;;;;;;4954885;28;20924;-69
2021/07/27 03:13:29;;;;;;;34.43;32.43;;;;;;;;;;4954754;28;20498;-66
2021/07/27 03:15:56;;;;;;;34.50;32.30;;;;;;;;;;4955049;28;20845;-69
2021/07/27 03:18:23;;;;;;;33.50;31.60;;;;;;;;;;4954437;28;20472;-68
2021/07/27 03:20:51;;;;;;;34.60;32.40;;;;;;;;;;4954689;28;20948;-68
2021/07/27 03:23:20;;;;;;;32.90;31.00;;;;;;;;;;4952914;28;20994;-68
2021/07/27 03:25:47;;;;;;;35.97;33.77;;;;;;;;;;4954809;28;20476;-68
2021/07/27 03:28:15;;;;;;;35.63;33.43;;;;;;;;;;4954307;28;20456;-68
2021/07/27 03:30:42;;;;;;;35.93;33.73;;;;;;;;;;4954698;28;20450;-67
2021/07/27 03:33:09;;;;;;;34.50;32.50;;;;;;;;;;4954315;28;20856;-68
2021/07/27 03:35:36;;;;;;;34.80;32.60;;;;;;;;;;4954640;28;20851;-68
2021/07/27 03:38:06;;;;;;;35.43;33.23;;;;;;;;;;4953837;28;20467;-68
2021/07/27 03:40:34;;;;;;;37.00;34.70;;;;;;;;;;4954944;28;20842;-68
2021/07/27 03:43:01;;;;;;;37.10;34.80;;;;;;;;;;4954410;28;20459;-68
2021/07/27 03:45:28;;;;;;;36.07;33.77;;;;;;;;;;4953923;28;20826;-68
2021/07/27 03:47:55;;;;;;;36.30;34.10;;;;;;;;;;4953647;28;20479;-68
2021/07/27 03:50:23;;;;;;;35.77;33.57;;;;;;;;;;4954316;28;20460;-67
2021/07/27 03:52:50;;;;;;;34.37;32.27;;;;;;;;;;4954001;28;20484;-68
2021/07/27 03:55:19;;;;;;;33.67;31.57;;;;;;;;;;4953648;28;20456;-66
2021/07/27 03:57:46;;;;;;;34.83;32.63;;;;;;;;;;4953972;28;20455;-68
2021/07/27 04:00:14;;;;;;;33.60;31.53;;;;;;;;;;4953873;28;20466;-68
2021/07/27 04:02:41;;;;;;;35.00;32.50;;;;;;;;;;4953951;29;20453;-68
2021/07/27 04:05:09;;;;;;;33.23;30.90;;;;;;;;;;4953857;28;20467;-68
2021/07/27 04:07:36;;;;;;;33.40;30.80;;;;;;;;;;4954442;28;20472;-68
2021/07/27 04:10:03;;;;;;;34.13;31.80;;;;;;;;;;4954065;28;20453;-68
2021/07/27 04:12:31;;;;;;;34.10;32.00;;;;;;;;;;4953192;28;20484;-68
2021/07/27 04:14:59;;;;;;;33.37;31.07;;;;;;;;;;4953564;28;20466;-68
2021/07/27 04:17:26;;;;;;;32.13;30.10;;;;;;;;;;4953301;28;20480;-68
2021/07/27 04:19:53;;;;;;;32.13;29.93;;;;;;;;;;4954324;28;20827;-69
2021/07/27 04:22:20;;;;;;;32.60;30.50;;;;;;;;;;4953419;28;20820;-68
2021/07/27 04:24:48;;;;;;;32.30;30.20;;;;;;;;;;4953761;28;20462;-68
2021/07/27 04:27:15;;;;;;;31.30;29.30;;;;;;;;;;4953365;28;20506;-69
2021/07/27 04:29:45;;;;;;;32.50;30.50;;;;;;;;;;4953901;28;20452;-69
2021/07/27 04:32:12;;;;;;;32.97;30.83;;;;;;;;;;4953379;28;20472;-67
2021/07/27 04:34:39;;;;;;;33.13;30.80;;;;;;;;;;4953200;28;20452;-69
2021/07/27 04:37:06;;;;;;;32.33;30.33;;;;;;;;;;4954007;28;20476;-67
2021/07/27 04:39:34;;;;;;;32.33;30.23;;;;;;;;;;4952985;28;20936;-69
2021/07/27 04:42:01;;;;;;;33.13;31.00;;;;;;;;;;4953610;28;20462;-69
2021/07/27 04:44:28;;;;;;;32.70;30.60;;;;;;;;;;4953396;28;20457;-69
2021/07/27 04:46:57;;;;;;;33.27;30.97;;;;;;;;;;4953140;28;20841;-69
2021/07/27 04:49:24;;;;;;;33.20;30.93;;;;;;;;;;4953318;28;20456;-69
2021/07/27 04:51:51;;;;;;;33.23;30.70;;;;;;;;;;4953290;28;21049;-69
2021/07/27 04:54:27;;;;;;;31.30;29.30;;;;;;;;;;4952724;28;20492;-69
2021/07/27 04:56:54;;;;;;;32.07;29.97;;;;;;;;;;4953687;28;20486;-68
2021/07/27 04:59:21;;;;;;;32.20;29.80;;;;;;;;;;4954265;28;20818;-68
2021/07/27 05:01:48;;;;;;;32.97;30.77;;;;;;;;;;4957383;28;20457;-68
2021/07/27 05:04:17;;;;;;;32.77;30.57;;;;;;;;;;4957012;28;20463;-68
2021/07/27 05:06:44;;;;;;;33.13;31.03;;;;;;;;;;4957189;28;20478;-69
2021/07/27 05:09:11;;;;;;;32.47;30.47;;;;;;;;;;4957183;28;20863;-66
2021/07/27 05:11:38;;;;;;;33.77;31.67;;;;;;;;;;4956265;28;20466;-69
2021/07/27 05:14:07;;;;;;;32.83;30.53;;;;;;;;;;4957165;28;20484;-67
2021/07/27 05:16:34;;;;;;;32.67;30.70;;;;;;;;;;4956587;28;20483;-68
2021/07/27 05:19:20;;;;;;;32.90;30.17;;;;;;;;;;4956874;28;20483;-69
2021/07/27 05:21:50;;;;;;;31.30;29.20;;;;;;;;;;4956604;28;20459;-69
2021/07/27 05:24:17;;;;;;;31.50;29.50;;;;;;;;;;4957058;28;20474;-69
2021/07/27 05:26:44;;;;;;;31.00;28.97;;;;;;;;;;4956564;28;20471;-69
2021/07/27 05:29:11;;;;;;;31.67;29.43;;;;;;;;;;4956744;28;20833;-69
2021/07/27 05:31:39;;;;;;;31.63;29.33;;;;;;;;;;4956513;28;20821;-68
2021/07/27 05:34:07;;;;;;;31.63;29.53;;;;;;;;;;4957044;28;20844;-69
2021/07/27 05:36:35;;;;;;;31.50;29.40;;;;;;;;;;4956739;28;20499;-69
2021/07/27 05:39:03;;;;;;;31.63;29.30;;;;;;;;;;4956734;28;20456;-67
2021/07/27 05:41:31;;;;;;;31.07;28.97;;;;;;;;;;4955123;28;20468;-68
2021/07/27 05:43:58;;;;;;;29.63;27.53;;;;;;;;;;4975546;28;20962;-66
2021/07/27 05:46:25;;;;;;;31.43;29.20;;;;;;;;;;4959026;28;20995;-68
2021/07/27 05:48:53;;;;;;;29.80;27.43;;;;;;;;;;4955759;28;20471;-67
2021/07/27 05:51:22;;;;;;;29.37;27.47;;;;;;;;;;4999081;23;20656;-71
2021/07/27 05:53:49;;;;;;;30.03;27.87;;;;;;;;;;4969070;28;20488;-71
2021/07/27 05:56:18;;;;;;;29.70;27.60;;;;;;;;;;4971122;28;20459;-72
2021/07/27 05:58:45;;;;;;;33.30;31.00;;;;;;;;;;4979619;28;20451;-71
2021/07/27 06:01:12;;;;;;;30.10;28.20;;;;;;;;;;4991264;28;20482;-71
2021/07/27 06:03:39;;;;;;;52.37;49.77;;;;;;;;;;4979443;28;20463;-72
2021/07/27 06:06:06;;;;;;;32.60;30.40;;;;;;;;;;4986314;28;20463;-71
2021/07/27 06:08:33;;;;;;;30.17;28.10;;;;;;;;;;4991266;28;20457;-72
2021/07/27 06:11:00;;;;;;;31.83;29.80;;;;;;;;;;4986147;28;20567;-72
2021/07/27 06:13:29;;;;;;;31.30;29.40;;;;;;;;;;4970610;28;21935;-72
2021/07/27 06:15:56;;;;;;;35.97;33.37;;;;;;;;;;4976204;28;21058;-71
2021/07/27 06:18:23;;;;;;;30.57;28.67;;;;;;;;;;4974362;28;20455;-71
2021/07/27 06:20:50;;;;;;;31.80;29.70;;;;;;;;;;4976310;28;20471;-72
2021/07/27 06:23:18;;;;;;;31.27;29.17;;;;;;;;;;4975511;28;20455;-71
2021/07/27 06:25:45;;;;;;;30.20;28.30;;;;;;;;;;4977877;28;20462;-71
2021/07/27 06:28:12;;;;;;;28.00;26.30;;;;;;;;;;4976315;28;20519;-71
2021/07/27 06:30:40;;;;;;;29.10;27.40;;;;;;;;;;4978136;28;20475;-71
2021/07/27 06:33:07;;;;;;;28.63;26.73;;;;;;;;;;4973132;28;20487;-72
2021/07/27 06:35:35;;;;;;;34.80;32.40;;;;;;;;;;4975576;28;20462;-72
2021/07/27 06:38:02;;;;;;;29.90;27.90;;;;;;;;;;4974938;28;20974;-72
2021/07/27 06:40:29;;;;;;;28.10;26.30;;;;;;;;;;4973867;28;20490;-72
2021/07/27 06:42:56;;;;;;;28.53;26.63;;;;;;;;;;4976688;28;20459;-71
2021/07/27 06:45:23;;;;;;;27.80;26.10;;;;;;;;;;4973497;28;20499;-71
2021/07/27 06:47:52;;;;;;;27.70;25.90;;;;;;;;;;4967654;28;20471;-71
2021/07/27 06:50:19;;;;;;;29.30;27.50;;;;;;;;;;4970911;28;20481;-70
2021/07/27 06:52:46;;;;;;;29.30;27.53;;;;;;;;;;4976013;28;20819;-71
2021/07/27 06:55:17;;;;;;;30.47;28.57;;;;;;;;;;4975957;28;20459;-71
2021/07/27 06:57:44;;;;;;;29.37;27.47;;;;;;;;;;4975564;28;20962;-71
2021/07/27 07:00:12;;;;;;;28.57;26.87;;;;;;;;;;4975351;28;20479;-72
2021/07/27 07:02:39;;;;;;;28.80;27.07;;;;;;;;;;4976185;28;20477;-70
2021/07/27 07:05:08;;;;;;;35.20;33.00;;;;;;;;;;4971400;28;20817;-68
2021/07/27 07:07:36;;;;;;;34.80;32.50;;;;;;;;;;4969497;28;20478;-69
2021/07/27 07:10:03;;;;;;;28.60;26.80;;;;;;;;;;4974790;28;20825;-69
2021/07/27 07:12:30;;;;;;;30.57;28.63;;;;;;;;;;4968066;28;20450;-69
2021/07/27 07:14:57;;;;;;;31.77;29.67;;;;;;;;;;4975273;28;20487;-69
2021/07/27 07:17:24;;;;;;;29.77;27.90;;;;;;;;;;4974148;28;20469;-70
2021/07/27 07:19:51;;;;;;;30.40;28.40;;;;;;;;;;4975341;28;20475;-69
2021/07/27 07:22:20;;;;;;;29.20;27.30;;;;;;;;;;4969533;28;20487;-69
2021/07/27 07:24:47;;;;;;;29.43;27.53;;;;;;;;;;4971811;28;20534;-69
2021/07/27 07:27:16;;;;;;;28.23;26.63;;;;;;;;;;4965068;28;20439;-69
2021/07/27 07:29:43;;;;;;;28.10;26.30;;;;;;;;;;4970268;28;20477;-68
2021/07/27 07:32:10;;;;;;;28.30;26.60;;;;;;;;;;4973993;28;20809;-69
2021/07/27 07:34:37;;;;;;;31.60;29.60;;;;;;;;;;4974829;28;20491;-69
2021/07/27 07:37:06;;;;;;;31.80;29.70;;;;;;;;;;4973489;28;20451;-69
2021/07/27 07:39:36;;;;;;;33.17;30.77;;;;;;;;;;4973877;28;20866;-70
2021/07/27 07:42:05;;;;;;;31.00;28.90;;;;;;;;;;4967360;28;20464;-70
2021/07/27 07:44:32;;;;;;;33.07;31.17;;;;;;;;;;4973080;28;20454;-70
2021/07/27 07:46:59;;;;;;;30.30;28.50;;;;;;;;;;4974093;28;20546;-71
2021/07/27 07:49:26;;;;;;;29.70;27.90;;;;;;;;;;4972713;28;20455;-72
2021/07/27 07:51:55;;;;;;;29.93;28.23;;;;;;;;;;4974339;28;20463;-71
2021/07/27 07:54:24;;;;;;;32.67;29.70;;;;;;;;;;4974320;28;20485;-67
2021/07/27 07:56:52;;;;;;;31.10;28.90;;;;;;;;;;4974782;28;20487;-67
2021/07/27 07:59:20;;;;;;;32.80;30.30;;;;;;;;;;4972894;28;20455;-67
2021/07/27 08:01:49;;;;;;;38.27;35.40;;;;;;;;;;4974100;28;20469;-67
2021/07/27 08:04:16;;;;;;;39.53;36.63;;;;;;;;;;4974024;28;20552;-67
2021/07/27 08:06:44;;;;;;;39.53;36.67;;;;;;;;;;4974766;28;20455;-67
2021/07/27 08:09:11;;;;;;;44.40;41.50;;;;;;;;;;4973744;28;20993;-68
2021/07/27 08:11:40;;;;;;;40.43;37.13;;;;;;;;;;4971536;28;20562;-67
2021/07/27 08:14:10;;;;;;;45.70;42.83;;;;;;;;;;4973540;28;20479;-69
2021/07/27 08:16:38;;;;;;;39.00;36.50;;;;;;;;;;4973585;28;20463;-67
2021/07/27 08:19:05;;;;;;;35.47;33.17;;;;;;;;;;4957568;28;20452;-67
2021/07/27 08:21:32;;;;;;;35.33;32.80;;;;;;;;;;4963033;28;20479;-67
2021/07/27 08:23:59;;;;;;;34.37;31.87;;;;;;;;;;4973770;28;20448;-67
2021/07/27 08:26:27;;;;;;;33.53;31.40;;;;;;;;;;4972939;28;20834;-67
2021/07/27 08:28:54;;;;;;;34.33;32.07;;;;;;;;;;4973783;28;20850;-70
2021/07/27 08:31:23;;;;;;;33.43;31.13;;;;;;;;;;4972278;28;20478;-69
2021/07/27 08:33:50;;;;;;;31.43;29.30;;;;;;;;;;4973573;28;21019;-70
2021/07/27 08:36:17;;;;;;;28.83;26.93;;;;;;;;;;4973340;28;20477;-71
2021/07/27 08:38:45;;;;;;;29.40;27.60;;;;;;;;;;4973340;28;21002;-70
2021/07/27 08:41:14;;;;;;;28.43;26.60;;;;;;;;;;4972812;28;20541;-71
2021/07/27 08:43:41;;;;;;;26.83;25.23;;;;;;;;;;4972122;28;20839;-70
2021/07/27 08:46:08;;;;;;;27.17;25.37;;;;;;;;;;4974156;28;20447;-70
2021/07/27 08:48:38;;;;;;;26.93;25.33;;;;;;;;;;4974277;28;20975;-72
2021/07/27 08:51:05;;;;;;;27.90;26.20;;;;;;;;;;4971774;28;20484;-72
2021/07/27 08:53:32;;;;;;;28.73;26.90;;;;;;;;;;4972197;28;20459;-69
2021/07/27 08:56:00;;;;;;;28.57;26.57;;;;;;;;;;4968602;28;20962;-69
2021/07/27 08:58:27;;;;;;;28.20;26.30;;;;;;;;;;4972164;28;20455;-69
2021/07/27 09:00:54;;;;;;;28.40;26.70;;;;;;;;;;4957846;28;21075;-69
2021/07/27 09:03:22;;;;;;;28.73;26.83;;;;;;;;;;4964419;28;20455;-69
2021/07/27 09:06:03;;;;;;;27.90;26.20;;;;;;;;;;4972391;28;20514;-69
2021/07/27 09:08:30;;;;;;;29.27;27.37;;;;;;;;;;4966089;28;20463;-69
2021/07/27 09:11:00;;;;;;;32.70;30.60;;;;;;;;;;4972333;28;20471;-69
2021/07/27 09:13:31;;;;;;;30.67;28.67;;;;;;;;;;4965021;28;20448;-69
2021/07/27 09:15:59;;;;;;;30.73;28.80;;;;;;;;;;4954634;28;20467;-69
2021/07/27 09:18:26;;;;;;;30.30;28.20;;;;;;;;;;4964332;28;20447;-70
2021/07/27 09:20:55;;;;;;;28.23;26.43;;;;;;;;;;4973500;28;20834;-69
2021/07/27 09:23:23;;;;;;;27.40;25.80;;;;;;;;;;4974080;28;20550;-70
2021/07/27 09:25:51;;;;;;;26.90;25.30;;;;;;;;;;4973577;28;20458;-70
2021/07/27 09:28:18;;;;;;;28.70;27.10;;;;;;;;;;4971574;28;20455;-69
2021/07/27 09:30:46;;;;;;;29.90;28.10;;;;;;;;;;4972849;28;20463;-69
2021/07/27 09:33:13;;;;;;;29.03;27.37;;;;;;;;;;4973801;28;20455;-70
2021/07/27 09:35:41;;;;;;;26.40;24.60;;;;;;;;;;4973307;28;21010;-69
2021/07/27 09:38:11;;;;;;;26.10;24.50;;;;;;;;;;4973597;28;20463;-69
2021/07/27 09:40:39;;;;;;;27.70;26.00;;;;;;;;;;4973068;28;20471;-69
2021/07/27 09:43:06;;;;;;;24.83;23.43;;;;;;;;;;4973181;28;20455;-69
2021/07/27 09:45:34;;;;;;;26.97;25.47;;;;;;;;;;4975149;28;20473;-69
2021/07/27 09:48:02;;;;;;;26.87;25.33;;;;;;;;;;4977302;28;20550;-69
2021/07/27 09:50:29;;;;;;;28.00;26.30;;;;;;;;;;4976916;28;20493;-69
2021/07/27 09:52:56;;;;;;;26.27;24.77;;;;;;;;;;4977036;28;20477;-70
2021/07/27 09:55:24;;;;;;;26.03;24.53;;;;;;;;;;4976100;28;20498;-69
2021/07/27 09:57:52;;;;;;;28.13;26.43;;;;;;;;;;4975519;28;20482;-69
2021/07/27 10:00:19;;;;;;;25.60;24.10;;;;;;;;;;4976045;28;20481;-69
2021/07/27 10:02:48;;;;;;;27.70;25.90;;;;;;;;;;4976643;28;20455;-70
2021/07/27 10:05:21;;;;;;;25.77;24.37;;;;;;;;;;4976874;28;20459;-69
2021/07/27 10:07:53;;;;;;;24.53;23.10;;;;;;;;;;4960211;28;20464;-70
2021/07/27 10:10:20;;;;;;;26.27;24.67;;;;;;;;;;4957070;28;20476;-69
2021/07/27 10:12:48;;;;;;;27.07;25.47;;;;;;;;;;4957447;28;20458;-70
2021/07/27 10:15:18;;;;;;;26.00;24.50;;;;;;;;;;4957468;28;21011;-70
2021/07/27 10:17:51;;;;;;;25.43;23.90;;;;;;;;;;4973946;28;20532;-70
2021/07/27 10:20:25;;;;;;;24.43;22.70;;;;;;;;;;4974872;28;20467;-70
2021/07/27 10:22:52;;;;;;;24.00;22.70;;;;;;;;;;4975791;28;20829;-69
2021/07/27 10:25:20;;;;;;;23.80;22.50;;;;;;;;;;4975160;28;20451;-69
2021/07/27 10:27:52;;;;;;;23.97;22.53;;;;;;;;;;4975336;28;20502;-70
2021/07/27 10:30:31;;;;;;;23.40;22.13;;;;;;;;;;4975100;28;20467;-70
2021/07/27 10:32:58;;;;;;;22.90;21.60;;;;;;;;;;4971121;28;20455;-70
2021/07/27 10:35:26;;;;;;;22.53;21.23;;;;;;;;;;4974825;28;20488;-70
2021/07/27 10:37:53;;;;;;;24.47;23.07;;;;;;;;;;4974461;28;20451;-70
2021/07/27 10:40:29;;;;;;;24.13;22.73;;;;;;;;;;4975012;28;20466;-70
2021/07/27 10:42:57;;;;;;;24.30;22.70;;;;;;;;;;4975046;28;20454;-70
2021/07/27 10:45:26;;;;;;;25.37;23.73;;;;;;;;;;4971196;28;20457;-70
2021/07/27 10:47:53;;;;;;;25.43;23.83;;;;;;;;;;4955424;28;20951;-70
2021/07/27 10:50:25;;;;;;;26.30;24.60;;;;;;;;;;4954819;28;20865;-70
2021/07/27 10:53:00;;;;;;;27.70;26.20;;;;;;;;;;4958225;28;20459;-70
2021/07/27 10:55:28;;;;;;;28.57;26.70;;;;;;;;;;4974712;28;20494;-70
2021/07/27 10:57:57;;;;;;;31.13;29.23;;;;;;;;;;4974277;28;20451;-70
2021/07/27 11:00:32;;;;;;;31.23;29.33;;;;;;;;;;4965140;28;20996;-70
2021/07/27 11:02:59;;;;;;;29.37;27.53;;;;;;;;;;4955487;28;20452;-70
2021/07/27 11:05:26;;;;;;;27.80;26.10;;;;;;;;;;4974777;28;20462;-69
2021/07/27 11:07:53;;;;;;;29.80;27.80;;;;;;;;;;4974738;28;20456;-69
2021/07/27 11:10:21;;;;;;;27.63;26.00;;;;;;;;;;4975182;28;20578;-70
2021/07/27 11:12:49;;;;;;;29.50;27.80;;;;;;;;;;4975333;28;20451;-70
2021/07/27 11:15:18;;;;;;;31.03;29.10;;;;;;;;;;4974988;28;20486;-70
2021/07/27 11:17:47;;;;;;;31.37;29.47;;;;;;;;;;4971141;28;20510;-70
2021/07/27 11:20:16;;;;;;;32.57;30.47;;;;;;;;;;4975994;28;20478;-70
2021/07/27 11:22:44;;;;;;;30.50;28.60;;;;;;;;;;4975718;28;20465;-73
2021/07/27 11:25:12;;;;;;;29.20;27.50;;;;;;;;;;4975015;28;20455;-68
2021/07/27 11:27:39;;;;;;;29.70;28.10;;;;;;;;;;4970515;28;20951;-68
2021/07/27 11:30:09;;;;;;;29.77;27.83;;;;;;;;;;4974958;28;20479;-70
2021/07/27 11:32:40;;;;;;;29.70;28.00;;;;;;;;;;4975500;28;20487;-68
2021/07/27 11:35:09;;;;;;;29.80;28.00;;;;;;;;;;4972175;28;20483;-68
2021/07/27 11:37:36;;;;;;;29.83;27.80;;;;;;;;;;4971097;28;20476;-67
2021/07/27 11:40:03;;;;;;;30.67;28.87;;;;;;;;;;4955058;28;20851;-70
2021/07/27 11:42:31;;;;;;;31.27;29.37;;;;;;;;;;4970488;28;20951;-69
2021/07/27 11:45:00;;;;;;;31.00;29.10;;;;;;;;;;4974839;28;20461;-69
2021/07/27 11:47:27;;;;;;;29.60;27.80;;;;;;;;;;4974622;28;20452;-70
2021/07/27 11:49:55;;;;;;;27.93;26.27;;;;;;;;;;4973950;28;20490;-69
2021/07/27 11:52:28;;;;;;;29.33;27.63;;;;;;;;;;4966682;28;20470;-68
2021/07/27 11:55:02;;;;;;;28.60;27.00;;;;;;;;;;4968892;28;20479;-69
2021/07/27 11:57:29;;;;;;;29.37;27.57;;;;;;;;;;4970191;28;20448;-68
2021/07/27 12:00:12;;;;;;;26.60;25.10;;;;;;;;;;4982385;23;20913;-70
2021/07/27 12:02:39;;;;;;;26.77;25.17;;;;;;;;;;4983977;28;20499;-70
2021/07/27 12:05:07;;;;;;;28.70;26.90;;;;;;;;;;4974312;28;20447;-69
2021/07/27 12:07:35;;;;;;;26.50;25.00;;;;;;;;;;4972494;28;20447;-70
2021/07/27 12:10:02;;;;;;;27.93;26.27;;;;;;;;;;4987808;28;20839;-69
2021/07/27 12:12:29;;;;;;;27.67;26.07;;;;;;;;;;5000458;28;20447;-69
2021/07/27 12:14:57;;;;;;;27.60;26.00;;;;;;;;;;4994455;28;20493;-70
2021/07/27 12:17:24;;;;;;;26.77;25.17;;;;;;;;;;5009808;28;20446;-69
2021/07/27 12:19:51;;;;;;;27.33;25.83;;;;;;;;;;5002563;28;20465;-70
2021/07/27 12:22:18;;;;;;;29.10;27.30;;;;;;;;;;4995128;28;20457;-69
2021/07/27 12:24:47;;;;;;;28.27;26.57;;;;;;;;;;5008867;28;20473;-70
2021/07/27 12:27:14;;;;;;;29.57;27.77;;;;;;;;;;5006021;28;20837;-70
2021/07/27 12:29:41;;;;;;;27.23;25.63;;;;;;;;;;5003500;28;20473;-70
2021/07/27 12:32:08;;;;;;;28.87;27.00;;;;;;;;;;4995636;28;20465;-68
2021/07/27 12:34:36;;;;;;;28.83;27.00;;;;;;;;;;5013400;28;20517;-67
2021/07/27 12:37:03;;;;;;;26.60;25.07;;;;;;;;;;4996023;28;20443;-68
2021/07/27 12:39:30;;;;;;;26.73;25.23;;;;;;;;;;4995377;28;20475;-69
2021/07/27 12:41:58;;;;;;;26.87;25.27;;;;;;;;;;5002092;28;20457;-71
2021/07/27 12:44:25;;;;;;;27.90;26.20;;;;;;;;;;4994453;28;20976;-70
2021/07/27 12:46:53;;;;;;;25.47;23.97;;;;;;;;;;4994296;28;20451;-66
2021/07/27 12:49:20;;;;;;;27.67;25.97;;;;;;;;;;5009778;28;20470;-65
2021/07/27 12:51:48;;;;;;;26.30;24.70;;;;;;;;;;4999190;28;20946;-65
2021/07/27 12:54:15;;;;;;;25.07;23.50;;;;;;;;;;4992469;28;20481;-67
2021/07/27 12:56:42;;;;;;;25.87;24.47;;;;;;;;;;4991810;28;20482;-69
2021/07/27 12:59:10;;;;;;;25.50;24.10;;;;;;;;;;4991496;28;20862;-68
2021/07/27 13:01:37;;;;;;;26.30;24.80;;;;;;;;;;4992063;28;20457;-69
2021/07/27 13:04:05;;;;;;;25.87;24.37;;;;;;;;;;4991960;28;20834;-68
2021/07/27 13:06:34;;;;;;;25.60;24.03;;;;;;;;;;5011934;28;20452;-69
2021/07/27 13:09:02;;;;;;;23.87;22.47;;;;;;;;;;5005496;28;20475;-69
2021/07/27 13:11:29;;;;;;;24.97;23.50;;;;;;;;;;4992167;28;20545;-66
2021/07/27 13:13:57;;;;;;;24.73;23.33;;;;;;;;;;4992488;28;20465;-66
2021/07/27 13:16:25;;;;;;;25.80;24.30;;;;;;;;;;4992707;28;20589;-66
2021/07/27 13:18:53;;;;;;;25.07;23.50;;;;;;;;;;4992207;28;20493;-66
2021/07/27 13:21:21;;;;;;;24.90;23.50;;;;;;;;;;4995420;28;20548;-66
2021/07/27 13:23:48;;;;;;;26.00;24.50;;;;;;;;;;4999362;28;20588;-66
2021/07/27 13:26:15;;;;;;;27.33;25.67;;;;;;;;;;5016102;28;20971;-64
2021/07/27 13:28:42;;;;;;;26.73;24.93;;;;;;;;;;5015932;28;20469;-66
2021/07/27 13:31:09;;;;;;;25.70;24.20;;;;;;;;;;5016019;28;20453;-66
2021/07/27 13:33:38;;;;;;;25.10;23.70;;;;;;;;;;5015975;28;20955;-66
2021/07/27 13:36:05;;;;;;;35.23;24.87;;;;;;;;;;5015586;28;20485;-68
2021/07/27 13:38:32;;;;;;;25.57;24.07;;;;;;;;;;5005960;28;20462;-69
2021/07/27 13:40:59;;;;;;;24.53;23.23;;;;;;;;;;4995516;28;20451;-68
2021/07/27 13:43:27;;;;;;;26.37;24.87;;;;;;;;;;4995393;28;20456;-68
2021/07/27 13:45:54;;;;;;;26.47;24.87;;;;;;;;;;4995356;28;20455;-69
2021/07/27 13:48:21;;;;;;;24.53;23.10;;;;;;;;;;4995459;28;20832;-69
2021/07/27 13:50:49;;;;;;;25.10;23.60;;;;;;;;;;4995544;28;20454;-68
2021/07/27 13:53:16;;;;;;;24.40;23.00;;;;;;;;;;4995722;28;20457;-67
2021/07/27 13:55:44;;;;;;;24.27;22.77;;;;;;;;;;4996252;28;21000;-68
2021/07/27 13:58:12;;;;;;;24.20;22.80;;;;;;;;;;4995426;28;20499;-68
2021/07/27 14:00:39;;;;;;;23.83;22.53;;;;;;;;;;4994784;28;20555;-69
2021/07/27 14:03:07;;;;;;;24.60;23.20;;;;;;;;;;4995402;28;20461;-69
2021/07/27 14:05:36;;;;;;;24.40;23.17;;;;;;;;;;4995127;28;20447;-67
2021/07/27 14:08:05;;;;;;;24.70;23.27;;;;;;;;;;4995166;28;20462;-68
2021/07/27 14:10:32;;;;;;;23.67;22.47;;;;;;;;;;4995005;28;20474;-68
2021/07/27 14:12:59;;;;;;;24.30;23.00;;;;;;;;;;4995154;28;20466;-68
2021/07/27 14:15:26;;;;;;;23.53;22.23;;;;;;;;;;4995037;28;20829;-68
2021/07/27 14:17:53;;;;;;;22.83;21.63;;;;;;;;;;4995014;28;20454;-69
2021/07/27 14:20:20;;;;;;;23.03;21.73;;;;;;;;;;4994597;28;20470;-68
2021/07/27 14:22:47;;;;;;;23.27;21.90;;;;;;;;;;4994623;28;20489;-68
2021/07/27 14:25:17;;;;;;;23.87;22.57;;;;;;;;;;4995141;28;20458;-68
2021/07/27 14:27:44;;;;;;;23.20;21.90;;;;;;;;;;5001010;28;20464;-67
2021/07/27 14:30:14;;;;;;;23.30;22.00;;;;;;;;;;5014273;28;20479;-68
2021/07/27 14:32:41;;;;;;;26.13;24.63;;;;;;;;;;5013880;28;20948;-69
2021/07/27 14:35:08;;;;;;;26.40;24.90;;;;;;;;;;5014386;28;20450;-69
2021/07/27 14:37:36;;;;;;;27.67;26.17;;;;;;;;;;5014043;28;20501;-69
2021/07/27 14:40:03;;;;;;;25.70;24.30;;;;;;;;;;5014411;28;20492;-68